Time;durP1;ratioP1;P1;durP2;ratioP2;P2;SDS_P1;SDS_P2;PMS_P1;PMS_P2;Temp;Humidity;BMP_temperature;BMP_pressure;BME280_temperature;BME280_humidity;BME280_pressure;Samples;Min_cycle;Max_cycle;Signal;HPM_P1;HPM_P2
2024/01/29 00:03:45;;;;;;;12.40;8.52;;;;;;;2.86;65.03;99439.63;10365420;28;20067;-55
2024/01/29 00:08:44;;;;;;;12.32;7.70;;;;;;;2.72;64.81;99416.69;10365961;28;20067;-55
2024/01/29 00:13:45;;;;;;;12.73;8.70;;;;;;;3.07;64.10;99429.69;10366447;28;20486;-55
2024/01/29 00:18:44;;;;;;;11.82;7.93;;;;;;;3.02;64.22;99396.97;10365997;28;20071;-55
2024/01/29 00:23:43;;;;;;;14.55;9.13;;;;;;;3.34;63.16;99423.53;10365653;28;20040;-55
2024/01/29 00:28:42;;;;;;;14.23;11.80;;;;;;;3.38;63.06;99442.56;10366154;28;20084;-55
2024/01/29 00:33:41;;;;;;;15.00;9.93;;;;;;;3.59;63.51;99469.38;10365795;28;20106;-55
2024/01/29 00:38:40;;;;;;;17.33;11.18;;;;;;;2.91;63.01;99361.28;10365763;28;20031;-55
2024/01/29 00:43:39;;;;;;;14.48;8.13;;;;;;;3.09;63.42;99443.50;10365747;28;20470;-55
2024/01/29 00:48:38;;;;;;;11.20;8.07;;;;;;;3.05;64.27;99446.69;10365114;28;20826;-56
2024/01/29 00:53:37;;;;;;;10.70;8.65;;;;;;;2.63;66.30;99484.47;10365166;28;20039;-55
2024/01/29 00:58:36;;;;;;;13.10;8.15;;;;;;;2.44;67.36;99450.09;10365088;28;20482;-55
2024/01/29 01:03:35;;;;;;;13.95;10.57;;;;;;;2.76;67.36;99486.94;10364298;28;20536;-55
2024/01/29 01:08:34;;;;;;;16.13;10.25;;;;;;;2.37;68.71;99464.22;10364727;28;20028;-55
2024/01/29 01:13:33;;;;;;;13.98;10.77;;;;;;;2.38;70.00;99475.34;10364390;28;20534;-55
2024/01/29 01:18:32;;;;;;;16.67;10.50;;;;;;;2.28;71.02;99473.06;10363831;28;20053;-56
2024/01/29 01:23:31;;;;;;;19.52;10.50;;;;;;;2.32;70.32;99464.72;10363729;28;20108;-55
2024/01/29 01:28:30;;;;;;;14.00;8.90;;;;;;;2.42;70.49;99482.44;10364314;28;20131;-55
2024/01/29 01:33:30;;;;;;;14.40;11.48;;;;;;;2.63;69.14;99481.91;10363909;28;20132;-55
2024/01/29 01:38:29;;;;;;;15.60;10.05;;;;;;;2.57;69.45;99474.75;10363728;28;20096;-55
2024/01/29 01:43:28;;;;;;;15.40;10.27;;;;;;;2.22;69.23;99412.09;10363977;28;20128;-55
2024/01/29 01:48:27;;;;;;;21.08;11.02;;;;;;;2.72;68.29;99460.28;10363687;28;20028;-55
2024/01/29 01:53:29;;;;;;;33.40;18.85;;;;;;;2.55;68.27;99410.59;10363500;28;20041;-55
2024/01/29 01:58:29;;;;;;;20.15;12.57;;;;;;;2.42;68.93;99414.91;10363608;28;20056;-55
2024/01/29 02:03:28;;;;;;;27.63;15.48;;;;;;;2.55;68.66;99428.53;10363409;28;20060;-55
2024/01/29 02:08:29;;;;;;;47.67;25.88;;;;;;;2.63;69.40;99435.75;10361025;28;20041;-55
2024/01/29 02:13:28;;;;;;;22.35;12.48;;;;;;;2.86;68.92;99445.66;10361634;28;20079;-55
2024/01/29 02:18:26;;;;;;;19.00;12.07;;;;;;;2.20;70.00;99402.53;10360928;28;20064;-55
2024/01/29 02:23:25;;;;;;;17.95;10.75;;;;;;;2.17;71.20;99414.38;10362117;28;20060;-55
2024/01/29 02:28:27;;;;;;;14.85;10.25;;;;;;;2.28;72.65;99471.38;10362431;28;20049;-55
2024/01/29 02:33:26;;;;;;;21.77;13.00;;;;;;;2.29;71.68;99444.06;10365698;28;20130;-55
2024/01/29 02:38:25;;;;;;;21.65;11.73;;;;;;;2.55;71.05;99453.28;10370270;28;20024;-55
2024/01/29 02:43:24;;;;;;;18.27;10.85;;;;;;;2.76;70.75;99474.13;10370450;28;20029;-55
2024/01/29 02:48:23;;;;;;;18.88;10.75;;;;;;;2.90;70.25;99468.09;10369608;28;20021;-56
2024/01/29 02:53:22;;;;;;;26.40;15.05;;;;;;;2.96;69.58;99453.09;10369335;28;20056;-56
2024/01/29 02:58:21;;;;;;;35.90;22.23;;;;;;;3.04;69.85;99466.31;10369667;28;20111;-56
2024/01/29 03:03:20;;;;;;;20.08;12.07;;;;;;;2.76;70.03;99489.50;10369243;28;20029;-56
2024/01/29 03:08:18;;;;;;;16.08;9.82;;;;;;;2.01;71.58;99429.63;10368349;28;20067;-56
2024/01/29 03:13:17;;;;;;;16.25;9.35;;;;;;;2.05;71.61;99457.19;10369528;28;20115;-56
2024/01/29 03:18:16;;;;;;;19.10;12.07;;;;;;;0.36;71.29;99174.97;10369062;28;20048;-55
2024/01/29 03:23:15;;;;;;;16.65;10.95;;;;;;;1.56;73.08;99426.06;10368554;28;20024;-55
2024/01/29 03:28:14;;;;;;;14.90;10.13;;;;;;;1.79;73.06;99470.97;10367880;28;20045;-56
2024/01/29 03:33:13;;;;;;;12.98;8.93;;;;;;;1.88;72.62;99481.78;10367341;28;20425;-55
2024/01/29 03:38:12;;;;;;;13.18;8.60;;;;;;;1.98;71.46;99462.75;10368046;28;20147;-55
2024/01/29 03:43:11;;;;;;;11.57;8.35;;;;;;;1.06;71.48;99334.31;10367880;28;20068;-56
2024/01/29 03:48:10;;;;;;;11.68;8.10;;;;;;;1.63;71.85;99458.91;10367921;28;20037;-56
2024/01/29 03:53:09;;;;;;;11.10;8.07;;;;;;;1.59;71.10;99430.47;10367169;28;20071;-56
2024/01/29 03:58:08;;;;;;;9.90;7.55;;;;;;;1.72;70.70;99449.25;10367432;28;20478;-56
2024/01/29 04:03:07;;;;;;;12.60;7.95;;;;;;;1.93;70.16;99453.91;10367198;28;20515;-55
2024/01/29 04:08:06;;;;;;;9.48;7.38;;;;;;;1.67;69.85;99380.63;10366603;28;20440;-56
2024/01/29 04:13:05;;;;;;;11.02;6.78;;;;;;;2.30;68.80;99474.00;10366345;28;20064;-56
2024/01/29 04:18:04;;;;;;;12.93;8.60;;;;;;;2.38;68.33;99481.34;10366889;28;20064;-56
2024/01/29 04:23:03;;;;;;;15.68;10.90;;;;;;;2.32;68.27;99478.41;10365891;28;20033;-55
2024/01/29 04:28:02;;;;;;;10.77;6.70;;;;;;;2.00;67.60;99444.88;10365823;28;20080;-55
2024/01/29 04:33:01;;;;;;;10.27;6.60;;;;;;;2.21;67.95;99483.69;10365799;28;20071;-56
2024/01/29 04:38:00;;;;;;;10.98;8.23;;;;;;;2.30;67.67;99523.59;10365287;28;20067;-56
2024/01/29 04:42:59;;;;;;;14.98;8.60;;;;;;;2.02;67.04;99450.97;10365771;28;20455;-55
2024/01/29 04:47:58;;;;;;;11.32;7.97;;;;;;;1.70;67.11;99397.06;10365625;28;20466;-56
2024/01/29 04:52:58;;;;;;;13.45;9.25;;;;;;;2.47;66.92;99504.09;10365177;28;20414;-55
2024/01/29 04:57:56;;;;;;;11.30;8.15;;;;;;;2.66;67.06;99528.22;10364202;28;20060;-56
2024/01/29 05:02:55;;;;;;;13.93;9.88;;;;;;;2.61;66.26;99514.28;10364872;28;20111;-56
2024/01/29 05:07:54;;;;;;;14.93;9.50;;;;;;;2.59;67.14;99524.41;10364694;28;20033;-56
2024/01/29 05:12:54;;;;;;;11.65;8.48;;;;;;;1.36;66.93;99303.72;10362982;28;20548;-56
2024/01/29 05:17:53;;;;;;;;;;;;;;;2.68;66.55;99532.66;10364814;28;20617;-56
2024/01/29 05:22:52;;;;;;;13.27;9.38;;;;;;;2.58;66.43;99526.09;10364148;28;20374;-55
2024/01/29 05:27:51;;;;;;;52.95;26.88;;;;;;;2.33;66.02;99497.25;10363785;28;20462;-55
2024/01/29 05:32:50;;;;;;;15.88;10.05;;;;;;;2.18;65.87;99504.88;10364062;28;20726;-56
2024/01/29 05:37:49;;;;;;;21.60;12.70;;;;;;;2.35;65.87;99562.28;10363684;28;20072;-55
2024/01/29 05:42:52;;;;;;;14.95;10.98;;;;;;;2.22;66.08;99529.03;10362686;28;20040;-55
2024/01/29 05:47:51;;;;;;;24.77;16.75;;;;;;;1.78;66.32;99473.44;10361960;28;20121;-55
2024/01/29 05:52:50;;;;;;;17.30;13.45;;;;;;;2.36;65.50;99564.03;10368517;28;20033;-55
2024/01/29 05:57:49;;;;;;;19.30;12.43;;;;;;;2.05;65.00;99541.69;10362924;28;20076;-55
2024/01/29 06:02:49;;;;;;;16.60;12.13;;;;;;;2.03;65.64;99556.06;10363228;28;20060;-56
2024/01/29 06:07:48;;;;;;;12.70;8.90;;;;;;;1.97;65.76;99535.19;10367704;28;20442;-56
2024/01/29 06:12:48;;;;;;;9.18;7.25;;;;;;;2.23;65.59;99566.63;10368492;28;20072;-56
2024/01/29 06:17:47;;;;;;;37.17;26.00;;;;;;;2.04;64.80;99521.97;10370212;28;20068;-55
2024/01/29 06:22:46;;;;;;;19.77;13.57;;;;;;;2.39;65.11;99579.59;10369072;28;20025;-55
2024/01/29 06:27:45;;;;;;;20.33;12.13;;;;;;;2.30;64.76;99561.09;10365974;28;20136;-55
2024/01/29 06:32:44;;;;;;;17.27;9.80;;;;;;;1.91;64.74;99509.25;10370719;28;20080;-55
2024/01/29 06:37:43;;;;;;;15.65;10.82;;;;;;;2.27;64.97;99550.69;10369796;28;20095;-55
2024/01/29 06:42:42;;;;;;;24.70;14.77;;;;;;;2.55;64.40;99566.91;10367970;28;20798;-55
2024/01/29 06:47:41;;;;;;;16.75;10.57;;;;;;;2.73;63.72;99590.19;10350709;28;20467;-55
2024/01/29 06:52:40;;;;;;;18.98;13.82;;;;;;;2.57;63.41;99544.81;10347633;28;20128;-55
2024/01/29 06:57:39;;;;;;;18.88;11.90;;;;;;;2.47;63.00;99516.91;10358960;28;20049;-55
2024/01/29 07:02:38;;;;;;;22.55;11.98;;;;;;;2.91;62.76;99597.19;10368255;28;20111;-55
2024/01/29 07:07:37;;;;;;;13.15;9.50;;;;;;;2.49;62.25;99499.94;10366991;28;20063;-55
2024/01/29 07:12:36;;;;;;;14.98;9.65;;;;;;;2.90;62.25;99605.69;10364844;28;20037;-55
2024/01/29 07:17:38;;;;;;;11.38;7.28;;;;;;;2.57;61.99;99552.50;10362110;28;20410;-55
2024/01/29 07:22:38;;;;;;;10.77;7.00;;;;;;;2.67;63.13;99597.50;10364944;28;20065;-55
2024/01/29 07:27:37;;;;;;;11.68;7.18;;;;;;;2.51;62.46;99580.34;10361726;28;20091;-56
2024/01/29 07:32:36;;;;;;;8.27;6.38;;;;;;;2.62;62.01;99611.72;10359987;28;20056;-56
2024/01/29 07:37:35;;;;;;;16.67;9.25;;;;;;;2.50;62.32;99603.31;10366749;28;20115;-56
2024/01/29 07:42:34;;;;;;;10.10;6.93;;;;;;;2.18;62.13;99527.94;10367139;28;20029;-54
2024/01/29 07:47:33;;;;;;;13.10;8.18;;;;;;;2.72;62.36;99625.97;10366809;28;20485;-54
2024/01/29 07:52:32;;;;;;;11.27;7.07;;;;;;;2.74;62.27;99614.16;10366266;28;20482;-55
2024/01/29 07:57:30;;;;;;;13.13;8.50;;;;;;;2.31;61.63;99550.06;10360084;28;20041;-55
2024/01/29 08:02:30;;;;;;;11.10;7.85;;;;;;;2.96;61.21;99619.75;10353981;28;20049;-55
2024/01/29 08:07:29;;;;;;;24.85;13.52;;;;;;;2.64;61.06;99561.44;10364860;28;20068;-55
2024/01/29 08:12:28;;;;;;;11.57;8.02;;;;;;;2.89;60.81;99594.56;10364085;28;20044;-54
2024/01/29 08:17:26;;;;;;;8.35;6.85;;;;;;;3.36;60.61;99641.72;10363022;28;20040;-55
2024/01/29 08:22:26;;;;;;;9.15;6.55;;;;;;;2.49;60.16;99556.31;10363250;28;20025;-55
2024/01/29 08:27:27;;;;;;;10.00;6.47;;;;;;;2.86;60.92;99648.19;10363284;28;20591;-55
2024/01/29 08:32:26;;;;;;;11.90;8.15;;;;;;;2.59;60.47;99553.50;10361243;28;20075;-55
2024/01/29 08:37:24;;;;;;;12.77;9.50;;;;;;;3.25;60.87;99635.97;10362629;28;20090;-56
2024/01/29 08:42:23;;;;;;;12.75;7.93;;;;;;;3.39;60.55;99623.94;10341368;28;20495;-57
2024/01/29 08:47:22;;;;;;;14.25;9.45;;;;;;;3.72;59.73;99640.38;10349537;28;20422;-56
2024/01/29 08:52:22;;;;;;;11.32;8.05;;;;;;;3.91;59.32;99638.84;10361735;28;20041;-55
2024/01/29 08:57:21;;;;;;;9.45;8.18;;;;;;;4.18;58.30;99650.63;10363098;28;20057;-56
2024/01/29 09:02:20;;;;;;;9.90;7.15;;;;;;;4.19;57.25;99659.22;10364081;28;20036;-54
2024/01/29 09:07:19;;;;;;;13.50;10.38;;;;;;;4.17;56.39;99674.53;10364211;28;20098;-54
2024/01/29 09:12:18;;;;;;;10.73;7.38;;;;;;;4.09;55.46;99603.88;10352510;28;20061;-54
2024/01/29 09:17:17;;;;;;;10.70;7.72;;;;;;;4.73;54.79;99668.13;10341193;28;20064;-55
2024/01/29 09:22:16;;;;;;;9.02;6.57;;;;;;;4.67;53.34;99662.69;10343186;28;20027;-55
2024/01/29 09:27:15;;;;;;;8.98;6.55;;;;;;;3.65;53.44;99574.06;10356607;28;20052;-55
2024/01/29 09:32:14;;;;;;;9.93;6.63;;;;;;;4.12;53.08;99585.19;10349696;28;20365;-55
2024/01/29 09:37:13;;;;;;;10.77;6.35;;;;;;;3.70;53.14;99493.03;10322213;28;20078;-56
2024/01/29 09:42:17;;;;;;;11.90;7.68;;;;;;;4.99;52.68;99642.91;10324042;28;20127;-55
2024/01/29 09:47:20;;;;;;;10.10;7.22;;;;;;;5.32;52.71;99629.19;10327732;28;20198;-55
2024/01/29 09:52:19;;;;;;;8.20;6.72;;;;;;;5.26;51.85;99641.75;10324542;28;20147;-55
2024/01/29 09:57:18;;;;;;;9.50;6.80;;;;;;;5.67;52.05;99600.81;10323928;28;20143;-55
2024/01/29 10:02:19;;;;;;;8.73;6.97;;;;;;;6.14;50.22;99617.63;10346026;28;20021;-55
2024/01/29 10:07:18;;;;;;;8.18;6.32;;;;;;;5.37;49.51;99562.50;10341355;28;20534;-55
2024/01/29 10:12:26;;;;;;;10.18;6.70;;;;;;;6.23;49.93;99605.16;10364675;28;20532;-55
2024/01/29 10:17:25;;;;;;;6.97;5.97;;;;;;;5.93;47.74;99594.31;10364490;28;20179;-56
2024/01/29 10:22:25;;;;;;;8.40;6.07;;;;;;;5.73;49.27;99604.56;10373123;28;20051;-55
2024/01/29 10:27:24;;;;;;;6.90;6.15;;;;;;;5.11;49.35;99613.56;10368971;28;20076;-55
2024/01/29 10:32:26;;;;;;;11.13;7.88;;;;;;;5.07;49.70;99591.06;10351122;28;20029;-55
2024/01/29 10:37:26;;;;;;;6.03;5.43;;;;;;;5.12;48.97;99605.03;10367580;28;20182;-55
2024/01/29 10:42:28;;;;;;;9.25;7.60;;;;;;;4.61;49.49;99580.94;10377988;28;20048;-55
2024/01/29 10:47:35;;;;;;;6.95;6.30;;;;;;;4.70;49.71;99531.69;10369599;28;20056;-55
2024/01/29 10:52:34;;;;;;;6.80;5.60;;;;;;;4.35;48.54;99402.25;10374834;28;20474;-55
2024/01/29 10:57:36;;;;;;;7.90;7.10;;;;;;;3.93;48.77;99476.31;10373604;28;20104;-55
2024/01/29 11:02:35;;;;;;;10.15;7.40;;;;;;;4.54;48.68;99509.44;10379573;28;20060;-55
2024/01/29 11:07:35;;;;;;;9.27;6.82;;;;;;;5.41;47.88;99556.66;10383566;28;20056;-56
2024/01/29 11:12:35;;;;;;;9.35;7.53;;;;;;;5.60;47.41;99548.13;10374895;28;20064;-55
2024/01/29 11:17:34;;;;;;;10.40;6.57;;;;;;;6.29;47.21;99558.19;10371636;28;20900;-56
2024/01/29 11:22:35;;;;;;;8.48;6.03;;;;;;;5.85;46.17;99456.56;10352518;28;20641;-56
2024/01/29 11:27:38;;;;;;;7.75;5.63;;;;;;;5.88;45.57;99544.28;10345312;28;20140;-55
2024/01/29 11:32:40;;;;;;;6.65;6.00;;;;;;;5.64;46.44;99523.41;10364980;28;20132;-55
2024/01/29 11:37:39;;;;;;;11.27;6.82;;;;;;;5.35;47.37;99558.97;10381298;28;20438;-55
2024/01/29 11:42:38;;;;;;;;;;;;;;;4.61;48.76;99555.22;10384649;28;20036;-55
2024/01/29 11:47:37;;;;;;;6.82;5.72;;;;;;;4.19;48.69;99529.06;10379584;28;19916;-55
2024/01/29 11:52:36;;;;;;;8.40;5.72;;;;;;;3.78;49.58;99516.59;10378297;28;20115;-55
2024/01/29 11:57:35;;;;;;;;;;;;;;;4.05;50.45;99543.72;10378243;28;20061;-55
2024/01/29 12:02:34;;;;;;;10.35;8.07;;;;;;;3.85;51.21;99499.03;10375372;28;19951;-55
2024/01/29 12:07:34;;;;;;;8.70;6.00;;;;;;;3.91;51.54;99544.69;10371117;28;20040;-55
2024/01/29 12:12:33;;;;;;;11.23;7.43;;;;;;;3.44;51.39;99463.41;10400995;28;20067;-55
2024/01/29 12:17:36;;;;;;;12.63;7.35;;;;;;;3.88;51.35;99497.41;10376926;28;20054;-55
2024/01/29 12:22:37;;;;;;;10.38;7.13;;;;;;;4.21;51.04;99535.16;10352409;28;20051;-56
2024/01/29 12:27:36;;;;;;;8.48;6.00;;;;;;;3.73;50.48;99500.94;10377326;28;20076;-56
2024/01/29 12:32:35;;;;;;;9.07;7.07;;;;;;;3.71;50.54;99525.63;10367127;28;20029;-55
2024/01/29 12:37:34;;;;;;;10.38;7.25;;;;;;;4.04;50.35;99552.25;10368382;28;20503;-54
2024/01/29 12:42:33;;;;;;;12.43;8.95;;;;;;;3.21;50.03;99485.22;10365829;28;20035;-55
2024/01/29 12:47:32;;;;;;;12.18;7.40;;;;;;;3.37;49.87;99539.16;10362570;28;20067;-56
2024/01/29 12:52:31;;;;;;;8.10;6.90;;;;;;;3.41;50.04;99541.09;10365008;28;20048;-56
2024/01/29 12:57:30;;;;;;;8.68;6.60;;;;;;;3.54;50.04;99544.34;10381273;28;20425;-56
2024/01/29 13:02:30;;;;;;;10.48;7.72;;;;;;;3.35;49.74;99533.06;10365612;28;20031;-56
2024/01/29 13:07:29;;;;;;;;;;;;;;;3.63;49.94;99567.97;10382916;28;20066;-56
2024/01/29 13:12:27;;;;;;;12.55;8.88;;;;;;;3.35;49.12;99503.94;10331670;28;19917;-56
2024/01/29 13:17:28;;;;;;;15.25;10.45;;;;;;;2.62;48.70;99378.50;10348547;28;20058;-56
2024/01/29 13:22:27;;;;;;;11.18;8.50;;;;;;;3.36;48.35;99504.03;10324301;28;20115;-55
2024/01/29 13:27:26;;;;;;;13.43;10.75;;;;;;;3.63;48.67;99524.31;10354019;28;20045;-55
2024/01/29 13:32:25;;;;;;;13.80;10.70;;;;;;;3.55;48.75;99535.88;10351304;28;20064;-55
2024/01/29 13:37:24;;;;;;;12.30;9.98;;;;;;;3.25;49.03;99496.56;10375491;28;20761;-55
2024/01/29 13:42:23;;;;;;;12.07;9.52;;;;;;;3.39;49.02;99532.44;10356448;28;20663;-55
2024/01/29 13:47:22;;;;;;;19.75;12.07;;;;;;;3.70;48.64;99526.41;10377799;28;20035;-55
2024/01/29 13:52:21;;;;;;;12.65;8.85;;;;;;;3.67;48.22;99557.06;10375011;28;20497;-55
2024/01/29 13:57:20;;;;;;;17.75;12.68;;;;;;;3.82;48.71;99545.09;10372892;28;20422;-56
2024/01/29 14:02:19;;;;;;;13.93;9.45;;;;;;;3.72;48.61;99521.38;10372114;28;20016;-55
2024/01/29 14:07:18;;;;;;;12.32;9.90;;;;;;;3.51;48.39;99505.69;10378669;28;20062;-55
2024/01/29 14:12:18;;;;;;;18.85;12.82;;;;;;;2.47;49.08;99346.91;10369411;28;20061;-55
2024/01/29 14:17:17;;;;;;;18.88;13.60;;;;;;;3.42;49.75;99517.22;10370712;28;20057;-56
2024/01/29 14:22:18;;;;;;;15.13;11.52;;;;;;;3.81;49.43;99556.13;10367157;28;20029;-55
2024/01/29 14:27:17;;;;;;;16.17;11.25;;;;;;;3.59;49.36;99510.44;10360707;28;20077;-55
2024/01/29 14:32:16;;;;;;;28.27;17.20;;;;;;;3.97;48.82;99555.28;10373662;28;20587;-55
2024/01/29 14:37:15;;;;;;;11.18;9.18;;;;;;;3.93;48.56;99565.31;10383187;28;20032;-55
2024/01/29 14:42:14;;;;;;;13.80;10.63;;;;;;;3.49;48.81;99517.53;10371325;28;20072;-55
2024/01/29 14:47:13;;;;;;;13.90;10.60;;;;;;;3.65;48.74;99561.22;10348058;28;20124;-55
2024/01/29 14:52:12;;;;;;;17.45;13.75;;;;;;;3.38;49.05;99522.97;10341680;28;20111;-55
2024/01/29 14:57:11;;;;;;;15.23;12.23;;;;;;;3.60;49.04;99578.06;10361163;28;20152;-56
2024/01/29 15:02:11;;;;;;;22.30;13.77;;;;;;;3.33;49.15;99551.72;10382316;28;20036;-55
2024/01/29 15:07:10;;;;;;;20.30;14.52;;;;;;;3.23;49.08;99524.66;10371540;28;20124;-55
2024/01/29 15:12:10;;;;;;;16.08;10.80;;;;;;;3.08;48.53;99508.44;10352471;28;20036;-55
2024/01/29 15:17:09;;;;;;;16.15;11.85;;;;;;;2.98;48.92;99520.72;10381682;28;20052;-54
2024/01/29 15:22:08;;;;;;;18.50;13.90;;;;;;;3.14;49.09;99565.19;10383856;28;20036;-54
2024/01/29 15:27:07;;;;;;;13.27;10.63;;;;;;;3.11;49.20;99560.78;10389102;28;20517;-54
2024/01/29 15:32:06;;;;;;;17.45;13.75;;;;;;;2.58;49.89;99494.44;10377499;28;20041;-54
2024/01/29 15:37:05;;;;;;;16.10;12.55;;;;;;;2.99;49.77;99567.78;10390356;28;20457;-55
2024/01/29 15:42:06;;;;;;;18.27;13.45;;;;;;;3.07;49.68;99581.91;10369298;28;20564;-54
2024/01/29 15:47:05;;;;;;;21.55;15.30;;;;;;;3.01;50.37;99573.88;10385620;28;20064;-55
2024/01/29 15:52:04;;;;;;;27.55;18.08;;;;;;;2.91;50.54;99546.81;10382838;28;20108;-54
2024/01/29 15:57:07;;;;;;;24.90;17.42;;;;;;;3.16;50.73;99589.25;10382907;28;20108;-54
2024/01/29 16:02:08;;;;;;;26.20;18.05;;;;;;;2.80;51.04;99564.13;10376484;28;20509;-55
2024/01/29 16:07:07;;;;;;;18.98;14.73;;;;;;;3.05;51.62;99603.13;10363541;28;20071;-56
2024/01/29 16:12:06;;;;;;;24.10;15.05;;;;;;;2.51;51.38;99513.72;10347018;28;20020;-56
2024/01/29 16:17:05;;;;;;;21.30;16.63;;;;;;;2.02;51.70;99428.84;10339204;28;20127;-56
2024/01/29 16:22:04;;;;;;;19.08;15.30;;;;;;;3.08;51.40;99626.41;10330580;28;20040;-55
2024/01/29 16:27:04;;;;;;;19.15;13.35;;;;;;;2.52;51.67;99541.09;10337552;28;20071;-55
2024/01/29 16:32:03;;;;;;;23.55;15.75;;;;;;;2.80;51.94;99594.00;10366335;28;20136;-56
2024/01/29 16:37:02;;;;;;;23.52;15.43;;;;;;;3.01;51.67;99620.03;10401668;28;20064;-56
2024/01/29 16:42:01;;;;;;;22.60;15.88;;;;;;;2.38;52.18;99541.97;10395474;28;20072;-56
2024/01/29 16:47:00;;;;;;;25.35;15.88;;;;;;;2.56;52.64;99598.56;10360984;28;20032;-56
2024/01/29 16:51:59;;;;;;;17.63;11.77;;;;;;;2.53;51.97;99583.00;10360031;28;20064;-55
2024/01/29 16:57:04;;;;;;;26.65;17.48;;;;;;;2.80;52.16;99620.53;10361890;28;20498;-56
2024/01/29 17:02:04;;;;;;;31.38;22.30;;;;;;;3.01;52.29;99671.34;10360002;28;20052;-56
2024/01/29 17:07:03;;;;;;;23.83;16.30;;;;;;;3.04;52.26;99655.25;10361440;28;20091;-56
2024/01/29 17:12:03;;;;;;;25.30;18.40;;;;;;;2.39;52.13;99587.28;10360639;28;20072;-56
2024/01/29 17:17:04;;;;;;;22.48;16.27;;;;;;;2.72;52.20;99652.53;10360111;28;20123;-56
2024/01/29 17:22:03;;;;;;;38.03;22.70;;;;;;;2.85;52.30;99684.03;10360179;28;20068;-56
2024/01/29 17:27:02;;;;;;;36.72;24.83;;;;;;;2.61;52.74;99633.03;10360059;28;20080;-56
2024/01/29 17:32:03;;;;;;;;;;;;;;;2.92;52.53;99712.69;10359908;28;20068;-56
2024/01/29 17:37:02;;;;;;;28.85;18.77;;;;;;;2.88;52.39;99671.38;10359718;28;20421;-56
2024/01/29 17:42:03;;;;;;;;;;;;;;;2.80;52.68;99699.13;10360331;28;20079;-57
2024/01/29 17:47:02;;;;;;;18.38;12.65;;;;;;;2.58;53.51;99699.47;10359238;28;19986;-57
2024/01/29 17:52:02;;;;;;;50.70;29.88;;;;;;;2.38;54.88;99693.13;10360014;28;20057;-55
2024/01/29 17:57:02;;;;;;;20.58;14.77;;;;;;;2.46;54.95;99737.16;10358957;28;20061;-57
2024/01/29 18:02:02;;;;;;;14.35;10.73;;;;;;;2.01;55.63;99672.88;10361323;28;20064;-56
2024/01/29 18:07:01;;;;;;;23.55;15.77;;;;;;;2.20;55.98;99718.47;10367705;28;20059;-56
2024/01/29 18:12:00;;;;;;;19.20;13.57;;;;;;;2.29;56.60;99715.59;10368190;28;20037;-55
2024/01/29 18:16:58;;;;;;;28.75;18.27;;;;;;;1.90;56.29;99655.94;10366595;28;20068;-56
2024/01/29 18:21:57;;;;;;;32.67;19.88;;;;;;;2.24;56.94;99727.25;10367535;28;20029;-56
2024/01/29 18:26:56;;;;;;;19.38;13.43;;;;;;;1.10;57.22;99556.13;10366788;28;20084;-56
2024/01/29 18:31:55;;;;;;;19.52;12.32;;;;;;;2.08;57.57;99728.81;10366639;28;20036;-55
2024/01/29 18:36:55;;;;;;;15.48;10.95;;;;;;;2.21;57.99;99760.31;10366672;28;20072;-55
2024/01/29 18:41:54;;;;;;;24.67;15.25;;;;;;;2.21;58.08;99760.31;10365519;28;20068;-55
2024/01/29 18:47:04;;;;;;;23.40;16.85;;;;;;;2.27;58.14;99773.53;10366353;28;20461;-57
2024/01/29 18:52:07;;;;;;;31.70;18.30;;;;;;;1.97;58.92;99737.47;10366211;28;20178;-56
2024/01/29 18:57:06;;;;;;;34.83;20.50;;;;;;;0.86;58.97;99584.41;10366134;28;20095;-56
2024/01/29 19:02:06;;;;;;;37.35;20.80;;;;;;;0.49;58.78;99514.66;10365028;28;20037;-56
2024/01/29 19:07:07;;;;;;;;;;;;;;;1.83;59.55;99779.19;10365863;28;20071;-57
2024/01/29 19:12:07;;;;;;;49.47;22.90;;;;;;;1.68;59.71;99754.38;10365878;28;19948;-56
2024/01/29 19:17:06;;;;;;;35.20;16.42;;;;;;;1.59;59.77;99776.78;10364229;28;20064;-56
2024/01/29 19:22:05;;;;;;;18.08;11.95;;;;;;;1.46;61.21;99792.13;10364415;28;20190;-56
2024/01/29 19:27:06;;;;;;;18.73;11.95;;;;;;;0.93;61.65;99736.53;10364854;28;20513;-56
2024/01/29 19:32:08;;;;;;;22.60;14.43;;;;;;;1.26;61.52;99765.19;10364466;28;20071;-56
2024/01/29 19:37:07;;;;;;;19.52;12.25;;;;;;;1.16;61.29;99738.09;10364924;28;20537;-54
2024/01/29 19:42:06;;;;;;;28.75;17.40;;;;;;;1.48;61.30;99785.41;10364975;28;20498;-56
2024/01/29 19:47:05;;;;;;;31.13;19.83;;;;;;;1.53;60.83;99796.88;10363860;28;20069;-56
2024/01/29 19:52:04;;;;;;;23.15;15.02;;;;;;;1.22;61.27;99768.31;10364132;28;20041;-55
2024/01/29 19:57:03;;;;;;;25.08;15.63;;;;;;;1.57;60.83;99792.81;10363662;28;20072;-55
2024/01/29 20:02:02;;;;;;;22.17;15.02;;;;;;;1.48;60.76;99780.28;10363411;28;20641;-56
2024/01/29 20:07:01;;;;;;;23.95;14.93;;;;;;;1.25;60.73;99754.06;10363624;28;20060;-55
2024/01/29 20:12:00;;;;;;;27.95;20.40;;;;;;;1.61;60.62;99818.72;10363272;28;20028;-56
2024/01/29 20:16:59;;;;;;;22.65;15.55;;;;;;;1.83;60.54;99812.47;10362597;28;20033;-59
2024/01/29 20:21:58;;;;;;;20.45;12.77;;;;;;;1.49;60.33;99731.78;10364095;28;20176;-56
2024/01/29 20:26:58;;;;;;;23.98;13.80;;;;;;;1.91;60.57;99814.78;10362757;28;20041;-56
2024/01/29 20:31:57;;;;;;;29.02;16.50;;;;;;;1.96;60.74;99825.31;10362078;28;20076;-56
2024/01/29 20:36:56;;;;;;;21.00;13.90;;;;;;;1.88;61.35;99805.97;10361820;28;20037;-56
2024/01/29 20:41:55;;;;;;;19.80;12.32;;;;;;;1.86;60.91;99825.50;10362038;28;20544;-56
2024/01/29 20:46:54;;;;;;;21.23;13.65;;;;;;;1.46;61.37;99779.34;10360061;28;20277;-56
2024/01/29 20:51:55;;;;;;;20.95;14.10;;;;;;;1.47;61.78;99814.34;10361519;28;20075;-55
2024/01/29 20:56:58;;;;;;;26.33;16.17;;;;;;;1.32;61.67;99812.53;10362050;28;20068;-56
2024/01/29 21:01:57;;;;;;;28.27;16.13;;;;;;;0.81;62.86;99781.69;10361067;28;20071;-56
2024/01/29 21:07:00;;;;;;;21.88;12.85;;;;;;;0.66;64.16;99817.25;10361100;28;20040;-56
2024/01/29 21:11:59;;;;;;;28.20;18.02;;;;;;;0.51;63.67;99788.94;10361112;28;20071;-56
2024/01/29 21:16:58;;;;;;;27.02;14.50;;;;;;;-0.18;65.23;99723.59;10360630;28;20530;-55
2024/01/29 21:21:57;;;;;;;79.72;36.90;;;;;;;-0.12;65.10;99729.91;10360331;28;20064;-56
2024/01/29 21:26:56;;;;;;;29.92;16.10;;;;;;;0.52;64.56;99839.25;10360118;28;20072;-56
2024/01/29 21:31:55;;;;;;;38.67;21.52;;;;;;;0.53;64.31;99853.81;10359544;28;20104;-56
2024/01/29 21:36:55;;;;;;;31.20;15.85;;;;;;;0.45;64.52;99855.81;10359723;28;20044;-56
2024/01/29 21:41:55;;;;;;;19.35;12.80;;;;;;;0.21;64.62;99824.25;10360037;28;20060;-57
2024/01/29 21:46:54;;;;;;;20.08;12.50;;;;;;;0.26;64.65;99845.03;10359848;28;20454;-56
2024/01/29 21:51:53;;;;;;;26.48;14.82;;;;;;;-0.21;65.47;99786.25;10359069;28;20033;-55
2024/01/29 21:56:52;;;;;;;34.00;19.73;;;;;;;0.21;64.87;99869.34;10359880;28;20064;-55
2024/01/29 22:01:51;;;;;;;;;;;;;;;0.08;65.72;99869.19;10360044;28;20064;-55
2024/01/29 22:06:50;;;;;;;29.77;17.15;;;;;;;-0.14;65.17;99826.75;10359502;28;19917;-55
2024/01/29 22:11:49;;;;;;;23.20;14.75;;;;;;;0.10;65.34;99872.75;10359847;28;20510;-55
2024/01/29 22:16:48;;;;;;;28.50;17.48;;;;;;;-0.05;65.34;99857.19;10359234;28;20049;-55
2024/01/29 22:21:54;;;;;;;25.02;15.63;;;;;;;-1.17;65.75;99675.38;10358809;28;20021;-54
2024/01/29 22:26:53;;;;;;;25.60;15.45;;;;;;;-0.42;66.32;99828.91;10358040;28;20087;-55
2024/01/29 22:31:52;;;;;;;32.90;17.77;;;;;;;-0.31;66.89;99857.78;10359164;28;20033;-55
2024/01/29 22:36:51;;;;;;;26.80;15.48;;;;;;;-0.42;67.19;99859.53;10358740;28;20076;-55
2024/01/29 22:41:50;;;;;;;28.15;17.15;;;;;;;-0.45;68.39;99883.13;10359112;28;20040;-56
2024/01/29 22:46:49;;;;;;;23.00;13.60;;;;;;;-0.53;68.08;99848.53;10357234;28;20025;-55
2024/01/29 22:51:48;;;;;;;18.23;11.95;;;;;;;-0.83;67.75;99784.22;10363870;28;20091;-55
2024/01/29 22:56:47;;;;;;;22.30;12.70;;;;;;;-0.40;68.16;99842.66;10366167;28;20057;-56
2024/01/29 23:01:46;;;;;;;21.65;13.38;;;;;;;-0.35;68.15;99855.78;10365692;28;20036;-55
2024/01/29 23:06:45;;;;;;;20.48;13.05;;;;;;;-0.05;67.52;99858.06;10365351;28;20060;-56
2024/01/29 23:11:44;;;;;;;23.23;13.48;;;;;;;0.13;67.60;99848.34;10365237;28;20082;-56